createdAt,value
2018-11-20T00:02:18.616Z,102918.61
2018-11-20T00:04:47.790Z,102917.83
2018-11-20T00:07:15.526Z,102923.62
2018-11-20T00:09:44.428Z,102917.94
2018-11-20T00:12:13.628Z,102916.64
2018-11-20T00:14:41.944Z,102918.00
2018-11-20T00:17:09.673Z,102913.23
2018-11-20T00:19:38.568Z,102915.52
2018-11-20T00:22:06.872Z,102913.42
2018-11-20T00:24:35.187Z,102912.53
2018-11-20T00:27:03.430Z,102914.89
2018-11-20T00:29:31.806Z,102905.93
2018-11-20T00:32:00.114Z,102905.63
2018-11-20T00:34:28.428Z,102899.66
2018-11-20T00:36:56.170Z,102895.95
2018-11-20T00:39:25.055Z,102897.20
2018-11-20T00:41:53.395Z,102895.52
2018-11-20T00:44:21.697Z,102893.42
2018-11-20T00:46:49.426Z,102888.41
2018-11-20T00:49:18.327Z,102892.36
2018-11-20T00:51:46.673Z,102889.28
2018-11-20T00:54:14.962Z,102887.37
2018-11-20T00:56:43.288Z,102883.68
2018-11-20T00:59:11.600Z,102883.00
2018-11-20T01:01:39.332Z,102881.53
2018-11-20T01:04:07.651Z,102879.10
2018-11-20T01:06:36.539Z,102873.30
2018-11-20T01:09:04.265Z,102874.41
2018-11-20T01:11:33.156Z,102870.92
2018-11-20T01:14:00.895Z,102871.34
2018-11-20T01:16:29.204Z,102870.77
2018-11-20T01:18:58.126Z,102865.80
2018-11-20T01:21:25.872Z,102861.45
2018-11-20T01:23:54.192Z,102863.06
2018-11-20T01:26:22.744Z,102869.44
2018-11-20T01:28:51.415Z,102864.86
2018-11-20T01:31:19.153Z,102863.57
2018-11-20T01:33:48.040Z,102867.00
2018-11-20T01:36:15.766Z,102862.25
2018-11-20T01:38:44.076Z,102858.77
2018-11-20T01:41:12.394Z,102857.70
2018-11-20T01:43:40.725Z,102857.70
2018-11-20T01:46:09.045Z,102853.20
2018-11-20T01:48:37.943Z,102860.32
2018-11-20T01:51:06.296Z,102856.07
2018-11-20T01:53:34.570Z,102855.48
2018-11-20T01:56:02.893Z,102854.42
2018-11-20T01:58:31.197Z,102856.58
2018-11-20T02:00:59.517Z,102855.91
2018-11-20T02:03:27.824Z,102852.63
2018-11-20T02:05:55.560Z,102854.42
2018-11-20T02:08:23.867Z,102851.75
2018-11-20T02:10:52.178Z,102851.38
2018-11-20T02:13:32.681Z,102843.83
2018-11-20T02:16:00.992Z,102851.42
2018-11-20T02:18:29.297Z,102850.71
2018-11-20T02:20:57.604Z,102843.28
2018-11-20T02:23:26.486Z,102844.84
2018-11-20T02:25:54.253Z,102842.42
2018-11-20T02:28:22.567Z,102846.51
2018-11-20T02:30:51.467Z,102843.25
2018-11-20T02:33:19.208Z,102840.32
2018-11-20T02:35:47.523Z,102837.80
2018-11-20T02:38:15.834Z,102830.98
2018-11-20T02:40:44.159Z,102836.03
2018-11-20T02:43:12.484Z,102831.83
2018-11-20T02:45:41.385Z,102837.66
2018-11-20T02:48:09.698Z,102833.60
2018-11-20T02:50:38.044Z,102826.87
2018-11-20T02:53:06.360Z,102827.23
2018-11-20T02:55:34.098Z,102823.87
2018-11-20T02:58:02.988Z,102821.60
2018-11-20T03:00:30.725Z,102818.94
2018-11-20T03:02:59.622Z,102819.83
2018-11-20T03:05:27.930Z,102822.56
2018-11-20T03:07:56.236Z,102818.59
2018-11-20T03:10:23.978Z,102817.34
2018-11-20T03:12:52.285Z,102817.97
2018-11-20T03:15:20.600Z,102814.73
2018-11-20T03:17:48.920Z,102820.08
2018-11-20T03:20:17.805Z,102816.05
2018-11-20T03:22:46.420Z,102816.47
2018-11-20T03:25:15.625Z,102819.05
2018-11-20T03:27:43.379Z,102818.70
2018-11-20T03:30:11.686Z,102811.59
2018-11-20T03:32:40.572Z,102810.78
2018-11-20T03:35:08.816Z,102809.13
2018-11-20T03:37:36.629Z,102813.16
2018-11-20T03:40:05.541Z,102811.23
2018-11-20T03:42:33.861Z,102807.75
2018-11-20T03:45:01.641Z,102809.06
2018-11-20T03:47:29.946Z,102805.37
2018-11-20T03:49:58.835Z,102810.03
2018-11-20T03:52:26.566Z,102804.28
2018-11-20T03:54:54.876Z,102802.55
2018-11-20T03:57:23.773Z,102800.60
2018-11-20T03:59:52.099Z,102810.82
2018-11-20T04:02:20.412Z,102803.48
2018-11-20T04:04:48.752Z,102800.75
2018-11-20T04:07:17.061Z,102796.37
2018-11-20T04:09:44.797Z,102797.84
2018-11-20T04:12:13.684Z,102790.22
2018-11-20T04:14:42.020Z,102790.11
2018-11-20T04:17:09.757Z,102792.52
2018-11-20T04:19:38.639Z,102789.63
2018-11-20T04:22:06.388Z,102787.95
2018-11-20T04:24:35.282Z,102788.27
2018-11-20T04:27:03.616Z,102783.78
2018-11-20T04:29:31.364Z,102784.48
2018-11-20T04:31:59.701Z,102784.75
2018-11-20T04:34:28.013Z,102783.13
2018-11-20T04:36:56.900Z,102780.65
2018-11-20T04:39:25.211Z,102782.41
2018-11-20T04:41:53.328Z,102780.72
2018-11-20T04:44:22.110Z,102779.72
2018-11-20T04:46:50.432Z,102781.01
2018-11-20T04:49:18.795Z,102779.48
2018-11-20T04:51:47.105Z,102787.94
2018-11-20T04:54:14.843Z,102779.99
2018-11-20T04:56:43.736Z,102777.23
2018-11-20T04:59:12.055Z,102777.27
2018-11-20T05:01:39.781Z,102780.84
2018-11-20T05:04:08.671Z,102779.68
2018-11-20T05:06:37.033Z,102774.67
2018-11-20T05:09:04.725Z,102777.98
2018-11-20T05:11:33.033Z,102775.39
2018-11-20T05:14:01.341Z,102777.44
2018-11-20T05:16:29.657Z,102777.67
2018-11-20T05:18:57.969Z,102777.18
2018-11-20T05:21:26.875Z,102777.15
2018-11-20T05:23:54.632Z,102779.55
2018-11-20T05:26:23.750Z,102775.23
2018-11-20T05:28:51.265Z,102779.37
2018-11-20T05:31:20.161Z,102775.86
2018-11-20T05:33:48.473Z,102773.78
2018-11-20T05:36:16.212Z,102778.80
2018-11-20T05:38:44.561Z,102778.95
2018-11-20T05:41:12.867Z,102774.39
2018-11-20T05:43:41.767Z,102772.47
2018-11-20T05:46:10.089Z,102776.27
2018-11-20T05:48:38.430Z,102773.73
2018-11-20T05:51:06.877Z,102774.20
2018-11-20T05:53:34.976Z,102775.47
2018-11-20T05:56:02.921Z,102778.05
2018-11-20T05:58:31.240Z,102781.46
2018-11-20T06:01:00.131Z,102776.01
2018-11-20T06:03:27.869Z,102772.63
2018-11-20T06:05:56.793Z,102781.52
2018-11-20T06:08:24.526Z,102780.08
2018-11-20T06:10:53.427Z,102774.87
2018-11-20T06:13:21.162Z,102776.50
2018-11-20T06:15:50.054Z,102774.84
2018-11-20T06:18:18.370Z,102771.38
2018-11-20T06:20:46.099Z,102773.73
2018-11-20T06:23:15.012Z,102770.51
2018-11-20T06:25:42.759Z,102770.50
2018-11-20T06:28:11.700Z,102769.59
2018-11-20T06:30:39.432Z,102768.43
2018-11-20T06:33:08.358Z,102768.19
2018-11-20T06:35:36.680Z,102768.77
2018-11-20T06:38:04.995Z,102769.55
2018-11-20T06:40:32.723Z,102768.70
2018-11-20T06:43:01.037Z,102769.97
2018-11-20T06:45:29.995Z,102771.56
2018-11-20T06:47:58.653Z,102761.30
2018-11-20T06:50:26.373Z,102769.31
2018-11-20T06:52:55.315Z,102769.51
2018-11-20T06:55:23.627Z,102772.09
2018-11-20T06:57:51.362Z,102775.14
2018-11-20T07:00:20.248Z,102766.09
2018-11-20T07:02:48.579Z,102765.98
2018-11-20T07:05:16.915Z,102763.28
2018-11-20T07:07:45.432Z,102760.30
2018-11-20T07:10:13.547Z,102756.08
2018-11-20T07:12:41.863Z,102756.61
2018-11-20T07:15:10.190Z,102752.03
2018-11-20T07:17:38.507Z,102755.42
2018-11-20T07:20:06.842Z,102761.83
2018-11-20T07:22:34.643Z,102761.00
2018-11-20T07:25:03.468Z,102758.63
2018-11-20T07:27:32.028Z,102755.78
2018-11-20T07:29:59.825Z,102753.11
2018-11-20T07:32:28.681Z,102751.10
2018-11-20T07:34:57.067Z,102748.91
2018-11-20T07:37:25.579Z,102746.48
2018-11-20T07:39:53.670Z,102747.08
2018-11-20T07:42:21.386Z,102744.97
2018-11-20T07:44:49.713Z,102742.75
2018-11-20T07:47:18.616Z,102748.13
2018-11-20T07:49:46.969Z,102745.27
2018-11-20T07:52:14.705Z,102748.81
2018-11-20T07:54:43.631Z,102742.08
2018-11-20T07:57:12.220Z,102746.59
2018-11-20T07:59:39.954Z,102744.21
2018-11-20T08:02:08.928Z,102744.93
2018-11-20T08:04:37.203Z,102741.41
2018-11-20T08:07:05.066Z,102744.17
2018-11-20T08:09:33.457Z,102742.53
2018-11-20T08:12:02.335Z,102745.84
2018-11-20T08:14:30.956Z,102744.61
2018-11-20T08:16:59.283Z,102746.45
2018-11-20T08:19:27.596Z,102740.99
2018-11-20T08:21:55.322Z,102741.75
2018-11-20T08:24:24.217Z,102741.79
2018-11-20T08:26:52.535Z,102743.12
2018-11-20T08:29:20.273Z,102746.20
2018-11-20T08:31:49.178Z,102744.55
2018-11-20T08:34:17.613Z,102741.08
2018-11-20T08:36:45.818Z,102737.17
2018-11-20T08:39:14.142Z,102746.64
2018-11-20T08:41:41.870Z,102744.36
2018-11-20T08:44:10.200Z,102738.50
2018-11-20T08:46:39.502Z,102737.30
2018-11-20T08:49:07.852Z,102736.68
2018-11-20T08:51:36.269Z,102738.89
2018-11-20T08:54:04.581Z,102731.87
2018-11-20T08:56:32.938Z,102736.13
2018-11-20T08:59:00.751Z,102734.30
2018-11-20T09:01:29.866Z,102730.88
2018-11-20T09:03:57.599Z,102731.47
2018-11-20T09:06:25.922Z,102730.20
2018-11-20T09:08:54.812Z,102733.73
2018-11-20T09:11:23.144Z,102736.13
2018-11-20T09:13:51.465Z,102737.52
2018-11-20T09:16:19.794Z,102741.02
2018-11-20T09:18:48.126Z,102734.44
2018-11-20T09:21:15.921Z,102746.56
2018-11-20T09:23:44.205Z,102749.06
2018-11-20T09:26:13.111Z,102742.98
2018-11-20T09:28:41.464Z,102735.13
2018-11-20T09:31:09.801Z,102740.77
2018-11-20T09:33:38.121Z,102739.70
2018-11-20T09:36:06.468Z,102729.17
2018-11-20T09:38:34.202Z,102726.75
2018-11-20T09:41:03.102Z,102727.82
2018-11-20T09:43:31.420Z,102726.61
2018-11-20T09:45:59.736Z,102723.48
2018-11-20T09:48:28.052Z,102721.20
2018-11-20T09:50:56.380Z,102719.96
2018-11-20T09:53:24.730Z,102715.22
2018-11-20T09:55:53.042Z,102715.44
2018-11-20T09:58:20.805Z,102717.97
2018-11-20T10:00:49.121Z,102713.72
2018-11-20T10:03:18.041Z,102710.06
2018-11-20T10:05:46.372Z,102710.06
2018-11-20T10:08:14.699Z,102709.50
2018-11-20T10:10:42.446Z,102710.43
2018-11-20T10:13:11.344Z,102706.45
2018-11-20T10:15:39.080Z,102703.80
2018-11-20T10:18:07.410Z,102701.75
2018-11-20T10:20:36.298Z,102701.50
2018-11-20T10:23:04.631Z,102699.25
2018-11-20T10:25:33.038Z,102697.13
2018-11-20T10:28:00.717Z,102691.41
2018-11-20T10:30:29.019Z,102688.53
2018-11-20T10:32:57.344Z,102677.41
2018-11-20T10:35:26.306Z,102676.83
2018-11-20T10:37:54.601Z,102672.14
2018-11-20T10:40:22.865Z,102665.52
2018-11-20T10:42:51.473Z,102661.81
2018-11-20T10:45:19.643Z,102659.34
2018-11-20T10:47:47.905Z,102670.78
2018-11-20T10:50:16.223Z,102667.41
2018-11-20T10:52:44.637Z,102669.83
2018-11-20T10:55:13.108Z,102666.09
2018-11-20T10:57:41.231Z,102668.67
2018-11-20T11:00:10.079Z,102669.88
2018-11-20T11:02:39.097Z,102668.30
2018-11-20T11:05:07.826Z,102667.20
2018-11-20T11:07:36.189Z,102665.19
2018-11-20T11:10:04.421Z,102661.88
2018-11-20T11:12:32.805Z,102662.66
2018-11-20T11:15:00.491Z,102662.98
2018-11-20T11:17:28.809Z,102657.19
2018-11-20T11:19:57.730Z,102659.66
2018-11-20T11:22:26.038Z,102650.70
2018-11-20T11:24:53.797Z,102655.94
2018-11-20T11:27:22.140Z,102658.83
2018-11-20T11:29:51.008Z,102655.78
2018-11-20T11:32:18.769Z,102651.20
2018-11-20T11:34:47.854Z,102649.97
2018-11-20T11:37:15.569Z,102647.02
2018-11-20T11:39:44.477Z,102642.66
2018-11-20T11:42:12.793Z,102642.63
2018-11-20T11:44:40.551Z,102641.18
2018-11-20T11:47:08.880Z,102633.13
2018-11-20T11:49:37.772Z,102623.64
2018-11-20T11:52:06.105Z,102620.74
2018-11-20T11:54:34.420Z,102623.37
2018-11-20T11:57:02.737Z,102620.22
2018-11-20T11:59:31.064Z,102623.69
2018-11-20T12:04:28.328Z,102627.13
2018-11-20T12:06:56.679Z,102630.48
2018-11-20T12:09:24.436Z,102629.23
2018-11-20T12:11:52.721Z,102627.48
2018-11-20T12:14:21.619Z,102627.81
2018-11-20T12:16:49.377Z,102626.08
2018-11-20T12:19:18.280Z,102623.07
2018-11-20T12:21:46.817Z,102621.55
2018-11-20T12:24:14.916Z,102618.06
2018-11-20T12:26:43.534Z,102618.81
2018-11-20T12:29:11.265Z,102613.80
2018-11-20T12:31:40.176Z,102602.95
2018-11-20T12:34:07.920Z,102608.81
2018-11-20T12:36:36.826Z,102604.92
2018-11-20T12:39:05.156Z,102598.84
2018-11-20T12:41:33.458Z,102598.75
2018-11-20T12:44:05.811Z,102599.96
2018-11-20T12:46:30.091Z,102590.50
2018-11-20T12:48:58.746Z,102592.13
2018-11-20T12:51:27.360Z,102591.44
2018-11-20T12:53:55.396Z,102588.23
2018-11-20T12:56:23.410Z,102588.11
2018-11-20T12:58:53.998Z,102585.38
2018-11-20T13:01:20.636Z,102586.39
2018-11-20T13:03:50.016Z,102583.70
2018-11-20T13:06:17.580Z,102581.75
2018-11-20T13:08:45.904Z,102569.86
2018-11-20T13:11:14.228Z,102567.34
2018-11-20T13:13:42.573Z,102570.49
2018-11-20T13:16:10.913Z,102572.61
2018-11-20T13:18:39.264Z,102569.83
2018-11-20T13:21:10.928Z,102569.55
2018-11-20T13:23:35.897Z,102572.14
2018-11-20T13:26:04.864Z,102569.87
2018-11-20T13:28:33.168Z,102569.97
2018-11-20T13:31:01.722Z,102561.86
2018-11-20T13:33:29.850Z,102561.22
2018-11-20T13:35:57.627Z,102553.66
2018-11-20T13:38:26.644Z,102561.81
2018-11-20T13:41:05.580Z,102561.81
2018-11-20T13:43:34.154Z,102561.20
2018-11-20T13:46:02.449Z,102563.30
2018-11-20T13:48:30.202Z,102559.66
2018-11-20T13:50:59.141Z,102560.62
2018-11-20T13:53:27.460Z,102552.92
2018-11-20T13:55:56.010Z,102551.70
2018-11-20T13:58:23.549Z,102548.52
2018-11-20T14:00:52.452Z,102549.77
2018-11-20T14:03:21.580Z,102547.42
2018-11-20T14:05:50.191Z,102544.73
2018-11-20T14:08:18.444Z,102544.83
2018-11-20T14:10:47.332Z,102539.84
2018-11-20T14:13:15.142Z,102541.63
2018-11-20T14:15:43.486Z,102543.92
2018-11-20T14:18:11.788Z,102543.77
2018-11-20T14:20:40.924Z,102542.44
2018-11-20T14:23:09.301Z,102535.98
2018-11-20T14:25:39.973Z,102535.50
2018-11-20T14:28:06.198Z,102534.42
2018-11-20T14:30:33.948Z,102533.58
2018-11-20T14:33:02.851Z,102524.09
2018-11-20T14:35:30.639Z,102528.08
2018-11-20T14:37:58.971Z,102529.67
2018-11-20T14:40:27.303Z,102527.88
2018-11-20T14:42:56.207Z,102530.42
2018-11-20T14:45:24.752Z,102533.23
2018-11-20T14:47:52.849Z,102523.34
2018-11-20T14:50:21.164Z,102519.98
2018-11-20T14:52:49.497Z,102519.64
2018-11-20T14:55:17.818Z,102525.68
2018-11-20T14:57:46.411Z,102521.25
2018-11-20T15:00:14.756Z,102518.98
2018-11-20T15:02:42.485Z,102519.47
2018-11-20T15:05:11.404Z,102522.40
2018-11-20T15:07:41.130Z,102513.09
2018-11-20T15:10:09.456Z,102513.16
2018-11-20T15:12:37.834Z,102516.52
2018-11-20T15:15:06.682Z,102512.53
2018-11-20T15:17:35.013Z,102511.42
2018-11-20T15:20:04.084Z,102510.67
2018-11-20T15:22:32.501Z,102508.13
2018-11-20T15:25:00.826Z,102502.17
2018-11-20T15:27:28.604Z,102506.26
2018-11-20T15:30:03.262Z,102510.99
2018-11-20T15:32:30.948Z,102512.53
2018-11-20T15:35:01.115Z,102512.54
2018-11-20T15:37:29.599Z,102511.63
2018-11-20T15:39:57.961Z,102515.98
2018-11-20T15:42:26.333Z,102516.11
2018-11-20T15:44:54.422Z,102517.61
2018-11-20T15:47:23.341Z,102518.25
2018-11-20T15:49:51.104Z,102521.63
2018-11-20T15:52:20.059Z,102524.19
2018-11-20T15:54:48.393Z,102524.19
2018-11-20T15:57:17.318Z,102518.31
2018-11-20T15:59:45.481Z,102522.83
2018-11-20T16:02:14.604Z,102522.27
2018-11-20T16:04:43.252Z,102518.73
2018-11-20T16:07:11.969Z,102513.74
2018-11-20T16:09:40.548Z,102511.62
2018-11-20T16:12:08.304Z,102515.63
2018-11-20T16:14:37.233Z,102513.67
2018-11-20T16:17:16.430Z,102515.20
2018-11-20T16:19:33.918Z,102513.42
2018-11-20T16:22:02.631Z,102520.31
2018-11-20T16:24:30.951Z,102515.83
2018-11-20T16:26:59.348Z,102510.53
2018-11-20T16:29:28.090Z,102513.25
2018-11-20T16:31:56.434Z,102521.83
2018-11-20T16:34:24.756Z,102522.20
2018-11-20T16:36:53.074Z,102516.98
2018-11-20T16:39:22.414Z,102512.41
2018-11-20T16:41:50.150Z,102513.78
2018-11-20T16:44:18.485Z,102524.61
2018-11-20T16:46:46.819Z,102529.00
2018-11-20T16:49:15.181Z,102522.09
2018-11-20T16:51:43.540Z,102521.53
2018-11-20T16:54:11.856Z,102524.55
2018-11-20T16:56:40.195Z,102522.73
2018-11-20T16:59:08.528Z,102523.21
2018-11-20T17:01:37.136Z,102526.38
2018-11-20T17:04:05.837Z,102526.79
2018-11-20T17:06:34.112Z,102530.27
2018-11-20T17:09:02.458Z,102530.30
2018-11-20T17:11:30.807Z,102521.94
2018-11-20T17:13:59.354Z,102521.27
2018-11-20T17:16:27.447Z,102527.21
2018-11-20T17:18:55.824Z,102525.46
2018-11-20T17:21:23.926Z,102527.88
2018-11-20T17:23:52.826Z,102522.50
2018-11-20T17:26:21.901Z,102522.10
2018-11-20T17:28:49.503Z,102532.23
2018-11-20T17:31:17.870Z,102532.03
2018-11-20T17:33:46.197Z,102530.61
2018-11-20T17:36:13.956Z,102530.25
2018-11-20T17:38:42.401Z,102530.45
2018-11-20T17:41:10.718Z,102532.11
2018-11-20T17:43:39.621Z,102532.40
2018-11-20T17:46:07.999Z,102531.69
2018-11-20T17:48:36.594Z,102528.46
2018-11-20T17:51:04.868Z,102524.30
2018-11-20T17:53:33.191Z,102525.47
2018-11-20T17:56:02.017Z,102527.05
2018-11-20T17:58:30.741Z,102524.48
2018-11-20T18:00:58.877Z,102528.16
2018-11-20T18:03:28.497Z,102529.77
2018-11-20T18:05:57.070Z,102533.98
2018-11-20T18:08:25.226Z,102533.55
2018-11-20T18:10:53.666Z,102533.88
2018-11-20T18:13:22.056Z,102530.37
2018-11-20T18:15:50.462Z,102525.78
2018-11-20T18:18:19.071Z,102529.47
2018-11-20T18:20:47.646Z,102535.86
2018-11-20T18:23:16.229Z,102533.59
2018-11-20T18:25:44.338Z,102535.05
2018-11-20T18:28:12.776Z,102534.47
2018-11-20T18:30:41.102Z,102537.03
2018-11-20T18:33:08.847Z,102541.62
2018-11-20T18:35:38.069Z,102538.45
2018-11-20T18:38:06.671Z,102541.19
2018-11-20T18:40:35.352Z,102538.10
2018-11-20T18:43:03.709Z,102537.36
2018-11-20T18:45:32.081Z,102539.29
2018-11-20T18:48:00.444Z,102540.56
2018-11-20T18:50:28.403Z,102537.63
2018-11-20T18:52:57.338Z,102541.73
2018-11-20T18:55:25.690Z,102540.14
2018-11-20T18:57:54.028Z,102541.05
2018-11-20T19:00:22.409Z,102544.94
2018-11-20T19:02:50.730Z,102547.33
2018-11-20T19:05:20.009Z,102547.77
2018-11-20T19:07:48.560Z,102550.95
2018-11-20T19:10:16.898Z,102558.26
2018-11-20T19:12:45.011Z,102556.69
2018-11-20T19:15:14.094Z,102551.05
2018-11-20T19:17:42.406Z,102552.95
2018-11-20T19:20:10.981Z,102559.30
2018-11-20T19:22:39.767Z,102555.67
2018-11-20T19:25:07.862Z,102555.12
2018-11-20T19:27:36.220Z,102557.78
2018-11-20T19:30:04.618Z,102555.77
2018-11-20T19:32:32.893Z,102554.93
2018-11-20T19:35:01.469Z,102555.83
2018-11-20T19:37:30.089Z,102552.36
2018-11-20T19:39:58.165Z,102554.19
2018-11-20T19:42:26.513Z,102553.19
2018-11-20T19:44:54.253Z,102557.27
2018-11-20T19:47:23.209Z,102567.21
2018-11-20T19:49:51.548Z,102558.92
2018-11-20T19:52:19.866Z,102557.44
2018-11-20T19:54:48.318Z,102555.62
2018-11-20T19:57:16.665Z,102564.44
2018-11-20T19:59:45.018Z,102563.52
2018-11-20T20:02:13.604Z,102566.97
2018-11-20T20:04:41.341Z,102564.63
2018-11-20T20:07:09.661Z,102568.23
2018-11-20T20:09:38.580Z,102568.56
2018-11-20T20:12:06.889Z,102570.38
2018-11-20T20:14:35.234Z,102575.58
2018-11-20T20:17:03.017Z,102579.98
2018-11-20T20:19:31.986Z,102579.19
2018-11-20T20:21:59.757Z,102579.21
2018-11-20T20:24:29.786Z,102583.06
2018-11-20T20:26:57.381Z,102581.63
2018-11-20T20:29:25.526Z,102583.09
2018-11-20T20:31:53.854Z,102586.98
2018-11-20T20:34:21.624Z,102586.00
2018-11-20T20:36:50.570Z,102586.56
2018-11-20T20:39:18.917Z,102586.98
2018-11-20T20:41:47.522Z,102587.53
2018-11-20T20:44:16.205Z,102584.34
2018-11-20T20:46:44.591Z,102584.95
2018-11-20T20:49:13.265Z,102588.02
2018-11-20T20:51:41.592Z,102592.97
2018-11-20T20:54:12.543Z,102593.04
2018-11-20T20:56:38.365Z,102589.93
2018-11-20T20:59:07.001Z,102590.84
2018-11-20T21:01:35.636Z,102598.98
2018-11-20T21:04:03.802Z,102601.17
2018-11-20T21:06:32.143Z,102606.41
2018-11-20T21:09:00.171Z,102598.67
2018-11-20T21:11:28.821Z,102601.66
2018-11-20T21:13:57.144Z,102604.30
2018-11-20T21:16:25.862Z,102606.69
2018-11-20T21:18:54.267Z,102615.86
2018-11-20T21:21:22.592Z,102615.39
2018-11-20T21:23:50.934Z,102614.30
2018-11-20T21:26:18.688Z,102613.48
2018-11-20T21:28:47.596Z,102611.50
2018-11-20T21:31:15.921Z,102616.42
2018-11-20T21:33:44.481Z,102622.98
2018-11-20T21:36:12.605Z,102625.47
2018-11-20T21:38:41.016Z,102623.92
2018-11-20T21:41:09.365Z,102625.35
2018-11-20T21:43:37.126Z,102630.83
2018-11-20T21:46:05.474Z,102626.84
2018-11-20T21:48:34.411Z,102629.76
2018-11-20T21:51:02.742Z,102634.50
2018-11-20T21:53:31.062Z,102639.95
2018-11-20T21:55:58.902Z,102644.05
2018-11-20T21:58:27.307Z,102644.45
2018-11-20T22:00:56.384Z,102642.72
2018-11-20T22:03:24.778Z,102642.34
2018-11-20T22:05:53.467Z,102648.91
2018-11-20T22:08:24.908Z,102644.33
2018-11-20T22:10:50.428Z,102643.09
2018-11-20T22:13:18.206Z,102645.09
2018-11-20T22:15:47.109Z,102653.33
2018-11-20T22:18:15.428Z,102651.17
2018-11-20T22:20:43.787Z,102648.33
2018-11-20T22:23:12.126Z,102649.52
2018-11-20T22:25:40.469Z,102648.45
2018-11-20T22:28:08.990Z,102654.57
2018-11-20T22:30:37.321Z,102652.48
2018-11-20T22:33:05.958Z,102648.39
2018-11-20T22:35:34.268Z,102652.79
2018-11-20T22:38:02.003Z,102648.96
2018-11-20T22:40:30.321Z,102649.60
2018-11-20T22:42:59.953Z,102649.08
2018-11-20T22:45:28.277Z,102647.28
2018-11-20T22:47:56.580Z,102646.87
2018-11-20T22:50:24.897Z,102650.17
2018-11-20T22:52:53.212Z,102645.09
2018-11-20T22:55:21.552Z,102652.16
2018-11-20T22:57:49.297Z,102650.11
2018-11-20T23:00:18.452Z,102653.95
2018-11-20T23:02:46.773Z,102654.93
2018-11-20T23:05:13.970Z,102658.14
2018-11-20T23:07:42.862Z,102654.03
2018-11-20T23:10:11.196Z,102654.88
2018-11-20T23:12:38.946Z,102654.41
2018-11-20T23:15:07.883Z,102658.88
2018-11-20T23:17:36.192Z,102651.75
2018-11-20T23:20:03.952Z,102657.52
2018-11-20T23:22:32.311Z,102651.57
2018-11-20T23:25:01.216Z,102650.47
2018-11-20T23:27:30.607Z,102649.64
2018-11-20T23:29:57.561Z,102658.89
2018-11-20T23:32:26.473Z,102657.51
2018-11-20T23:34:54.794Z,102657.48
2018-11-20T23:37:22.546Z,102660.33
2018-11-20T23:39:51.447Z,102662.81
2018-11-20T23:42:23.853Z,102657.94
2018-11-20T23:44:48.125Z,102662.10
2018-11-20T23:47:15.878Z,102665.99
2018-11-20T23:49:44.168Z,102662.92
2018-11-20T23:52:13.059Z,102672.87
2018-11-20T23:54:40.815Z,102664.43
2018-11-20T23:57:09.709Z,102666.78
2018-11-20T23:59:37.440Z,102668.61
